createdAt,value
2018-04-28T00:00:05.598Z,98741.72
2018-04-28T00:02:35.707Z,98745.78
2018-04-28T00:05:03.741Z,98749.84
2018-04-28T00:07:31.545Z,98740.56
2018-04-28T00:09:59.363Z,98741.09
2018-04-28T00:12:27.464Z,98748.14
2018-04-28T00:14:55.499Z,98747.30
2018-04-28T00:17:23.295Z,98758.20
2018-04-28T00:19:51.089Z,98760.57
2018-04-28T00:22:18.881Z,98758.27
2018-04-28T00:28:03.594Z,98748.16
2018-04-28T00:30:35.071Z,98753.09
2018-04-28T00:36:06.009Z,98753.71
2018-04-28T00:38:33.829Z,98760.96
2018-04-28T00:41:01.639Z,98764.00
2018-04-28T00:43:29.437Z,98764.88
2018-04-28T00:45:58.888Z,98763.45
2018-04-28T00:48:46.072Z,98763.35
2018-04-28T00:51:16.160Z,98770.09
2018-04-28T00:53:44.165Z,98764.66
2018-04-28T00:56:11.963Z,98770.47
2018-04-28T00:58:46.071Z,98770.55
2018-04-28T01:01:17.409Z,98768.27
2018-04-28T01:04:02.931Z,98775.18
2018-04-28T01:06:30.981Z,98774.66
2018-04-28T01:08:59.364Z,98779.22
2018-04-28T01:11:29.706Z,98774.82
2018-04-28T01:13:58.337Z,98773.83
2018-04-28T01:16:28.738Z,98771.33
2018-04-28T01:19:00.331Z,98771.23
2018-04-28T01:21:34.440Z,98772.55
2018-04-28T01:27:15.605Z,98773.45
2018-04-28T01:30:06.550Z,98781.86
2018-04-28T01:35:55.205Z,98780.57
2018-04-28T01:38:37.325Z,98783.37
2018-04-28T01:41:11.893Z,98785.20
2018-04-28T01:43:56.250Z,98789.45
2018-04-28T01:46:27.657Z,98790.09
2018-04-28T01:48:56.192Z,98787.55
2018-04-28T01:51:31.593Z,98798.94
2018-04-28T01:54:17.152Z,98792.33
2018-04-28T01:56:47.302Z,98793.36
2018-04-28T01:59:15.104Z,98793.81
2018-04-28T02:01:42.902Z,98796.95
2018-04-28T02:04:11.435Z,98799.77
2018-04-28T02:06:47.117Z,98803.63
2018-04-28T02:09:15.637Z,98805.06
2018-04-28T02:11:45.209Z,98810.27
2018-04-28T02:17:12.050Z,98812.44
2018-04-28T02:19:43.377Z,98819.73
2018-04-28T02:25:18.125Z,98822.25
2018-04-28T02:27:50.224Z,98828.66
2018-04-28T02:30:19.600Z,98833.29
2018-04-28T02:32:47.405Z,98831.36
2018-04-28T02:35:36.617Z,98830.37
2018-04-28T02:41:14.137Z,98832.28
2018-04-28T02:43:53.459Z,98831.97
2018-04-28T02:46:24.062Z,98833.59
2018-04-28T02:48:58.622Z,98847.27
2018-04-28T02:51:28.177Z,98847.98
2018-04-28T02:53:57.817Z,98807.94
2018-04-28T02:56:30.421Z,98846.95
2018-04-28T02:59:04.668Z,98850.91
2018-04-28T03:01:42.617Z,98849.52
2018-04-28T03:04:11.200Z,98847.70
2018-04-28T03:06:43.445Z,98856.72
2018-04-28T03:09:12.263Z,98854.41
2018-04-28T03:11:43.805Z,98847.02
2018-04-28T03:14:19.305Z,98852.03
2018-04-28T03:16:55.923Z,98857.20
2018-04-28T03:19:24.669Z,98854.69
2018-04-28T03:21:52.475Z,98856.13
2018-04-28T03:24:32.789Z,98860.94
2018-04-28T03:27:03.337Z,98863.58
2018-04-28T03:29:34.775Z,98872.18
2018-04-28T03:32:03.223Z,98868.86
2018-04-28T03:34:36.882Z,98871.92
2018-04-28T03:37:08.442Z,98873.24
2018-04-28T03:39:40.733Z,98870.66
2018-04-28T03:42:11.299Z,98830.19
2018-04-28T03:44:44.558Z,98863.66
2018-04-28T03:47:32.093Z,98878.31
2018-04-28T03:50:00.127Z,98883.58
2018-04-28T03:52:27.960Z,98886.08
2018-04-28T03:54:57.084Z,98890.91
2018-04-28T03:57:37.470Z,98897.00
2018-04-28T04:00:16.828Z,98886.45
2018-04-28T04:02:56.183Z,98884.61
2018-04-28T04:08:42.101Z,98902.20
2018-04-28T04:11:22.437Z,98899.77
2018-04-28T04:17:17.544Z,98903.66
2018-04-28T04:19:56.968Z,98910.91
2018-04-28T04:25:50.863Z,98915.92
2018-04-28T04:28:37.002Z,98912.42
2018-04-28T04:31:14.138Z,98916.11
2018-04-28T04:33:43.541Z,98920.61
2018-04-28T04:36:16.819Z,98926.62
2018-04-28T04:38:46.363Z,98928.64
2018-04-28T04:41:29.600Z,98928.67
2018-04-28T04:47:23.497Z,98927.80
2018-04-28T04:53:15.134Z,98935.99
2018-04-28T04:55:55.393Z,98949.09
2018-04-28T05:01:56.224Z,98952.14
2018-04-28T05:04:26.320Z,98957.14
2018-04-28T05:10:35.094Z,98961.67
2018-04-28T05:16:13.677Z,98967.11
2018-04-28T05:18:53.429Z,98977.30
2018-04-28T05:21:25.808Z,98987.55
2018-04-28T05:24:04.368Z,98993.03
2018-04-28T05:29:52.521Z,98985.22
2018-04-28T05:32:28.112Z,98998.95
2018-04-28T05:37:56.838Z,98995.97
2018-04-28T05:40:36.259Z,99001.30
2018-04-28T05:43:15.869Z,98994.07
2018-04-28T05:45:55.452Z,98996.05
2018-04-28T05:48:30.803Z,98999.50
2018-04-28T05:51:04.307Z,99000.37
2018-04-28T05:53:41.695Z,99003.91
2018-04-28T05:59:43.601Z,98999.69
2018-04-28T06:05:34.329Z,98993.22
2018-04-28T06:08:39.577Z,98993.63
2018-04-28T06:11:22.320Z,98999.78
2018-04-28T06:14:01.561Z,99002.73
2018-04-28T06:16:37.065Z,99000.53
2018-04-28T06:19:10.658Z,99003.56
2018-04-28T06:21:39.024Z,99003.67
2018-04-28T06:24:07.426Z,99001.52
2018-04-28T06:26:35.500Z,99011.63
2018-04-28T06:29:03.544Z,99016.41
2018-04-28T06:31:31.587Z,99011.57
2018-04-28T06:33:59.635Z,99013.64
2018-04-28T06:36:28.015Z,99016.41
2018-04-28T06:38:55.837Z,99019.86
2018-04-28T06:41:23.885Z,99018.84
2018-04-28T06:43:52.392Z,99020.31
2018-04-28T06:46:20.486Z,99027.03
2018-04-28T06:48:48.559Z,99026.33
2018-04-28T06:51:16.958Z,99027.24
2018-04-28T06:53:45.359Z,99032.02
2018-04-28T06:56:13.453Z,99031.39
2018-04-28T06:58:41.586Z,99036.70
2018-04-28T07:01:09.771Z,99040.17
2018-04-28T07:03:37.813Z,99037.06
2018-04-28T07:06:05.881Z,99043.75
2018-04-28T07:08:34.253Z,99038.83
2018-04-28T07:11:02.300Z,99026.20
2018-04-28T07:13:32.475Z,99037.28
2018-04-28T07:16:00.537Z,99044.77
2018-04-28T07:18:28.614Z,99042.74
2018-04-28T07:20:56.441Z,99045.78
2018-04-28T07:23:24.679Z,99053.59
2018-04-28T07:25:53.063Z,99051.67
2018-04-28T07:28:20.869Z,99048.69
2018-04-28T07:30:48.697Z,99044.97
2018-04-28T07:33:16.737Z,99044.17
2018-04-28T07:35:44.797Z,99048.06
2018-04-28T07:38:12.604Z,99051.81
2018-04-28T07:40:40.647Z,99053.76
2018-04-28T07:43:08.692Z,99055.40
2018-04-28T07:45:36.725Z,99054.86
2018-04-28T07:48:04.765Z,99060.42
2018-04-28T07:50:32.828Z,99070.59
2018-04-28T07:53:01.666Z,99067.66
2018-04-28T07:55:29.751Z,99067.20
2018-04-28T07:57:58.126Z,99067.67
2018-04-28T08:00:26.531Z,99064.96
2018-04-28T08:02:54.744Z,99000.91
2018-04-28T08:05:22.797Z,99068.60
2018-04-28T08:07:51.254Z,99070.55
2018-04-28T08:10:18.909Z,99071.37
2018-04-28T08:12:47.004Z,99074.20
2018-04-28T08:15:15.097Z,99078.09
2018-04-28T08:17:43.060Z,99076.77
2018-04-28T08:20:11.132Z,99076.23
2018-04-28T08:22:39.818Z,99082.34
2018-04-28T08:25:07.909Z,98898.98
2018-04-28T08:27:35.962Z,99077.69
2018-04-28T08:30:03.592Z,99077.52
2018-04-28T08:32:31.663Z,99075.41
2018-04-28T08:34:59.586Z,99075.67
2018-04-28T08:37:27.813Z,99076.03
2018-04-28T08:39:55.743Z,99083.35
2018-04-28T08:42:23.780Z,99081.48
2018-04-28T08:44:51.921Z,99074.33
2018-04-28T08:47:20.328Z,99072.75
2018-04-28T08:49:48.726Z,99068.95
2018-04-28T08:52:17.118Z,99065.10
2018-04-28T08:54:46.249Z,99061.03
2018-04-28T08:57:14.635Z,99057.09
2018-04-28T09:02:47.076Z,99048.31
2018-04-28T09:05:15.465Z,99051.05
2018-04-28T09:07:43.838Z,99052.64
2018-04-28T09:10:12.237Z,99057.48
2018-04-28T09:12:40.618Z,99052.84
2018-04-28T09:15:09.000Z,98968.05
2018-04-28T09:17:37.910Z,99048.97
2018-04-28T09:20:06.481Z,99043.07
2018-04-28T09:22:34.856Z,99050.59
2018-04-28T09:25:02.998Z,99043.98
2018-04-28T09:27:31.090Z,99017.86
2018-04-28T09:29:59.466Z,99044.06
2018-04-28T09:32:27.614Z,99042.73
2018-04-28T09:34:55.999Z,99037.81
2018-04-28T09:37:24.384Z,99032.17
2018-04-28T09:39:52.794Z,99035.08
2018-04-28T09:42:21.734Z,99037.31
2018-04-28T09:44:50.109Z,99031.45
2018-04-28T09:47:18.802Z,99035.34
2018-04-28T09:49:47.184Z,99028.77
2018-04-28T09:52:15.563Z,99026.02
2018-04-28T09:54:43.966Z,99026.08
2018-04-28T09:57:12.360Z,99022.26
2018-04-28T09:59:40.734Z,99024.53
2018-04-28T10:02:14.424Z,99016.95
2018-04-28T10:04:42.823Z,99016.42
2018-04-28T10:07:11.221Z,99008.81
2018-04-28T10:09:39.618Z,99000.00
2018-04-28T10:12:08.014Z,99007.41
2018-04-28T10:14:36.382Z,99007.60
2018-04-28T10:17:04.740Z,98996.59
2018-04-28T10:19:33.112Z,98998.75
2018-04-28T10:22:02.314Z,98994.16
2018-04-28T10:24:30.677Z,98992.75
2018-04-28T10:27:00.691Z,98987.55
2018-04-28T10:29:29.170Z,98981.74
2018-04-28T10:31:57.542Z,98989.47
2018-04-28T10:34:25.923Z,98985.55
2018-04-28T10:36:54.312Z,98982.54
2018-04-28T10:39:23.029Z,98977.12
2018-04-28T10:41:51.428Z,98970.80
2018-04-28T10:44:19.822Z,98971.15
2018-04-28T10:46:48.209Z,98973.34
2018-04-28T10:49:16.599Z,98960.45
2018-04-28T10:51:44.978Z,98961.05
2018-04-28T10:54:13.363Z,98944.97
2018-04-28T10:56:41.917Z,98963.45
2018-04-28T10:59:10.289Z,98961.97
2018-04-28T11:01:38.653Z,98953.48
2018-04-28T11:04:07.017Z,98952.25
2018-04-28T11:06:35.403Z,98944.66
2018-04-28T11:09:03.339Z,98947.44
2018-04-28T11:11:31.712Z,98941.91
2018-04-28T11:14:00.094Z,98944.80
2018-04-28T11:16:29.250Z,98933.91
2018-04-28T11:18:57.622Z,98927.92
2018-04-28T11:21:25.759Z,98923.61
2018-04-28T11:23:53.890Z,98920.10
2018-04-28T11:26:22.256Z,98916.97
2018-04-28T11:28:50.413Z,98909.20
2018-04-28T11:31:19.190Z,98913.45
2018-04-28T11:33:47.577Z,98914.27
2018-04-28T11:36:15.943Z,98911.74
2018-04-28T11:38:44.314Z,98905.06
2018-04-28T11:41:12.685Z,98896.64
2018-04-28T11:43:41.141Z,98894.92
2018-04-28T11:46:09.609Z,98893.73
2018-04-28T11:48:37.985Z,98893.52
2018-04-28T11:51:06.356Z,98882.23
2018-04-28T11:53:35.656Z,98874.94
2018-04-28T11:56:04.038Z,98863.27
2018-04-28T11:58:32.406Z,98871.22
2018-04-28T12:01:00.798Z,98864.72
2018-04-28T12:03:29.170Z,98868.14
2018-04-28T12:05:57.596Z,98857.25
2018-04-28T12:08:26.559Z,98860.92
2018-04-28T12:10:54.961Z,98853.25
2018-04-28T12:13:23.352Z,98848.28
2018-04-28T12:15:51.737Z,98844.38
2018-04-28T12:18:20.122Z,98839.09
2018-04-28T12:20:48.549Z,98838.27
2018-04-28T12:23:16.912Z,98835.65
2018-04-28T12:25:45.308Z,98838.73
2018-04-28T12:28:13.714Z,98838.28
2018-04-28T12:30:42.085Z,98828.79
2018-04-28T12:33:10.471Z,98826.16
2018-04-28T12:35:38.845Z,98825.90
2018-04-28T12:38:07.229Z,98823.98
2018-04-28T12:40:35.599Z,98824.34
2018-04-28T12:43:03.999Z,98807.02
2018-04-28T12:45:33.140Z,98806.98
2018-04-28T12:48:01.305Z,98803.87
2018-04-28T12:50:29.728Z,98805.17
2018-04-28T12:52:58.407Z,98799.81
2018-04-28T12:55:26.791Z,98800.83
2018-04-28T12:57:55.164Z,98794.04
2018-04-28T13:00:23.537Z,98788.56
2018-04-28T13:02:51.923Z,98786.58
2018-04-28T13:05:20.304Z,98776.85
2018-04-28T13:07:48.681Z,98777.70
2018-04-28T13:10:17.083Z,98772.38
2018-04-28T13:12:45.444Z,98770.39
2018-04-28T13:15:14.679Z,98763.16
2018-04-28T13:17:43.058Z,98759.52
2018-04-28T13:20:11.441Z,98753.02
2018-04-28T13:22:39.839Z,98756.28
2018-04-28T13:25:08.220Z,98669.17
2018-04-28T13:27:36.599Z,98750.27
2018-04-28T13:30:04.693Z,98741.28
2018-04-28T13:32:33.728Z,98751.97
2018-04-28T13:35:02.178Z,98740.01
2018-04-28T13:37:30.618Z,98734.73
2018-04-28T13:39:58.984Z,98731.34
2018-04-28T13:42:27.354Z,98732.06
2018-04-28T13:44:55.764Z,98730.67
2018-04-28T13:47:24.147Z,98720.02
2018-04-28T13:49:52.524Z,98726.75
2018-04-28T13:52:20.907Z,98717.07
2018-04-28T13:54:49.304Z,98717.82
2018-04-28T13:57:17.677Z,98710.63
2018-04-28T13:59:46.057Z,98712.24
2018-04-28T14:02:14.443Z,98707.14
2018-04-28T14:04:42.826Z,98705.47
2018-04-28T14:07:11.200Z,98710.41
2018-04-28T14:09:39.599Z,98701.62
2018-04-28T14:12:07.589Z,98696.95
2018-04-28T14:14:35.722Z,98691.56
2018-04-28T14:17:04.088Z,98687.64
2018-04-28T14:19:32.447Z,98691.56
2018-04-28T14:22:00.816Z,98690.13
2018-04-28T14:24:29.225Z,98681.93
2018-04-28T14:26:58.024Z,98680.41
2018-04-28T14:29:26.521Z,98675.44
2018-04-28T14:31:54.904Z,98678.16
2018-04-28T14:34:23.271Z,98668.78
2018-04-28T14:36:51.657Z,98663.48
2018-04-28T14:39:20.038Z,98668.59
2018-04-28T14:41:48.413Z,98657.78
2018-04-28T14:44:16.861Z,98653.91
2018-04-28T14:46:46.439Z,98654.17
2018-04-28T14:49:14.814Z,98649.48
2018-04-28T14:51:43.771Z,98652.66
2018-04-28T14:54:12.293Z,98657.19
2018-04-28T14:56:40.682Z,98649.36
2018-04-28T14:59:10.005Z,98640.48
2018-04-28T15:01:38.373Z,98646.46
2018-04-28T15:04:06.737Z,98652.92
2018-04-28T15:06:35.101Z,98644.02
2018-04-28T15:09:03.217Z,98647.32
2018-04-28T15:11:31.602Z,98639.64
2018-04-28T15:13:59.988Z,98647.11
2018-04-28T15:16:28.369Z,98649.88
2018-04-28T15:18:56.789Z,98655.44
2018-04-28T15:21:25.823Z,98644.69
2018-04-28T15:23:54.206Z,98646.41
2018-04-28T15:26:22.590Z,98645.08
2018-04-28T15:28:50.965Z,98646.00
2018-04-28T15:31:19.358Z,98641.92
2018-04-28T15:33:47.991Z,98640.75
2018-04-28T15:36:16.387Z,98632.98
2018-04-28T15:38:44.771Z,98640.38
2018-04-28T15:41:13.274Z,98640.16
2018-04-28T15:43:42.458Z,98639.69
2018-04-28T15:46:10.846Z,98638.51
2018-04-28T15:48:39.231Z,98633.28
2018-04-28T15:51:07.625Z,98629.66
2018-04-28T15:53:36.184Z,98627.41
2018-04-28T15:56:04.557Z,98629.68
2018-04-28T15:58:32.929Z,98621.53
2018-04-28T16:01:01.304Z,98624.88
2018-04-28T16:03:29.702Z,98622.36
2018-04-28T16:05:58.070Z,98616.45
2018-04-28T16:08:26.481Z,98616.03
2018-04-28T16:10:54.868Z,98611.18
2018-04-28T16:13:23.430Z,98606.39
2018-04-28T16:15:53.832Z,98600.17
2018-04-28T16:18:22.194Z,98603.88
2018-04-28T16:20:50.627Z,98604.05
2018-04-28T16:23:18.994Z,98600.42
2018-04-28T16:25:47.410Z,98602.64
2018-04-28T16:28:15.868Z,98610.07
2018-04-28T16:30:44.276Z,98603.08
2018-04-28T16:33:12.669Z,98600.92
2018-04-28T16:35:41.044Z,98602.55
2018-04-28T16:38:09.426Z,98601.27
2018-04-28T16:40:37.797Z,98601.27
2018-04-28T16:43:06.177Z,98600.72
2018-04-28T16:45:34.557Z,98596.91
2018-04-28T16:48:03.123Z,98603.48
2018-04-28T16:50:31.512Z,98598.46
2018-04-28T16:52:59.941Z,98610.05
2018-04-28T16:55:28.338Z,98613.37
2018-04-28T16:57:56.741Z,98609.91
2018-04-28T17:00:25.109Z,98607.81
2018-04-28T17:02:54.041Z,98610.66
2018-04-28T17:05:22.491Z,98603.70
2018-04-28T17:07:50.872Z,98603.11
2018-04-28T17:10:19.279Z,98600.79
2018-04-28T17:12:47.645Z,98607.42
2018-04-28T17:15:16.020Z,98605.84
2018-04-28T17:17:53.719Z,98605.52
2018-04-28T17:20:22.124Z,98607.35
2018-04-28T17:22:50.568Z,98610.73
2018-04-28T17:25:18.978Z,98612.77
2018-04-28T17:27:47.353Z,98607.97
2018-04-28T17:30:15.400Z,98607.47
2018-04-28T17:32:43.860Z,98606.97
2018-04-28T17:35:12.233Z,98608.53
2018-04-28T17:37:40.620Z,98611.48
2018-04-28T17:40:09.709Z,98607.02
2018-04-28T17:42:38.078Z,98596.42
2018-04-28T17:45:07.101Z,98611.91
2018-04-28T17:47:36.042Z,98616.44
2018-04-28T17:50:08.926Z,98620.34
2018-04-28T17:52:37.340Z,98625.48
2018-04-28T17:55:06.156Z,98617.81
2018-04-28T17:57:34.585Z,98621.59
2018-04-28T18:00:02.956Z,98626.69
2018-04-28T18:02:32.135Z,98618.41
2018-04-28T18:05:00.747Z,98625.09
2018-04-28T18:07:29.134Z,98622.52
2018-04-28T18:09:57.504Z,98628.45
2018-04-28T18:12:25.873Z,98622.45
2018-04-28T18:14:54.240Z,98622.77
2018-04-28T18:17:22.618Z,98622.13
2018-04-28T18:19:50.989Z,98625.03
2018-04-28T18:22:19.348Z,98626.56
2018-04-28T18:24:47.734Z,98633.06
2018-04-28T18:27:16.107Z,98636.23
2018-04-28T18:29:44.474Z,98641.80
2018-04-28T18:32:12.853Z,98645.95
2018-04-28T18:34:41.236Z,98639.72
2018-04-28T18:37:09.993Z,98650.70
2018-04-28T18:39:38.397Z,98648.31
2018-04-28T18:42:06.802Z,98650.28
2018-04-28T18:44:35.525Z,98654.08
2018-04-28T18:47:03.888Z,98654.08
2018-04-28T18:49:32.305Z,98654.13
2018-04-28T18:52:00.715Z,98654.91
2018-04-28T18:54:29.096Z,98659.36
2018-04-28T18:56:57.238Z,98662.38
2018-04-28T18:59:25.671Z,98655.37
2018-04-28T19:01:54.213Z,98666.75
2018-04-28T19:04:22.581Z,98661.49
2018-04-28T19:06:50.966Z,98665.32
2018-04-28T19:09:20.074Z,98666.11
2018-04-28T19:11:48.468Z,98660.80
2018-04-28T19:14:16.807Z,98663.10
2018-04-28T19:16:45.490Z,98630.48
2018-04-28T19:19:13.890Z,98664.18
2018-04-28T19:21:42.277Z,98653.89
2018-04-28T19:24:10.651Z,98655.12
2018-04-28T19:26:39.033Z,98649.72
2018-04-28T19:29:07.402Z,98649.84
2018-04-28T19:31:35.768Z,98645.44
2018-04-28T19:34:04.147Z,98651.50
2018-04-28T19:36:32.529Z,98654.75
2018-04-28T19:39:00.902Z,98646.30
2018-04-28T19:41:29.277Z,98655.89
2018-04-28T19:43:57.434Z,98656.18
2018-04-28T19:46:25.816Z,98657.84
2018-04-28T19:48:54.190Z,98655.07
2018-04-28T19:51:22.345Z,98650.77
2018-04-28T19:53:50.823Z,98646.21
2018-04-28T19:56:19.307Z,98651.97
2018-04-28T19:58:48.258Z,98645.30
2018-04-28T20:01:16.628Z,98647.13
2018-04-28T20:03:45.054Z,98645.59
2018-04-28T20:06:13.447Z,98649.06
2018-04-28T20:08:41.825Z,98642.17
2018-04-28T20:11:10.224Z,98647.55
2018-04-28T20:13:38.615Z,98646.34
2018-04-28T20:16:06.993Z,98641.36
2018-04-28T20:18:35.368Z,98652.92
2018-04-28T20:21:03.748Z,98649.70
2018-04-28T20:23:44.231Z,98648.19
2018-04-28T20:26:12.625Z,98645.31
2018-04-28T20:28:40.989Z,98635.80
2018-04-28T20:31:10.086Z,98642.11
2018-04-28T20:33:38.466Z,98649.92
2018-04-28T20:36:06.888Z,98645.16
2018-04-28T20:38:35.668Z,98647.56
2018-04-28T20:41:04.057Z,98651.19
2018-04-28T20:43:32.440Z,98652.11
2018-04-28T20:46:00.868Z,98653.17
2018-04-28T20:48:29.328Z,98655.64
2018-04-28T20:50:57.706Z,98650.86
2018-04-28T20:53:26.161Z,98654.27
2018-04-28T20:55:54.557Z,98660.95
2018-04-28T20:58:22.960Z,98661.91
2018-04-28T21:00:51.349Z,98665.34
2018-04-28T21:03:19.719Z,98657.59
2018-04-28T21:05:48.114Z,98662.04
2018-04-28T21:08:16.488Z,98659.98
2018-04-28T21:10:44.888Z,98657.30
2018-04-28T21:13:13.250Z,98656.14
2018-04-28T21:15:41.624Z,98657.70
2018-04-28T21:18:10.030Z,98655.37
2018-04-28T21:20:38.406Z,98652.52
2018-04-28T21:23:06.816Z,98658.38
2018-04-28T21:25:35.190Z,98658.95
2018-04-28T21:28:03.581Z,98661.88
2018-04-28T21:30:31.969Z,98660.56
2018-04-28T21:33:00.377Z,98657.63
2018-04-28T21:35:28.929Z,98655.52
2018-04-28T21:37:57.321Z,98654.47
2018-04-28T21:40:25.701Z,98651.66
2018-04-28T21:42:54.067Z,98643.38
2018-04-28T21:45:22.211Z,98650.27
2018-04-28T21:47:50.588Z,98643.59
2018-04-28T21:50:18.967Z,98650.11
2018-04-28T21:52:47.353Z,98649.63
2018-04-28T21:55:16.328Z,98653.22
2018-04-28T21:57:44.716Z,98656.16
2018-04-28T22:00:13.128Z,98655.97
2018-04-28T22:02:41.497Z,98653.34
2018-04-28T22:05:17.378Z,98660.59
2018-04-28T22:07:45.759Z,98656.72
2018-04-28T22:10:17.129Z,98657.98
2018-04-28T22:12:45.549Z,98667.69
2018-04-28T22:17:48.427Z,98664.23
2018-04-28T22:20:17.065Z,98662.77
2018-04-28T22:22:45.442Z,98657.64
2018-04-28T22:25:15.012Z,98656.09
2018-04-28T22:27:43.433Z,98645.56
2018-04-28T22:30:16.870Z,98649.20
2018-04-28T22:32:45.276Z,98643.44
2018-04-28T22:35:13.777Z,98651.31
2018-04-28T22:37:42.164Z,98645.46
2018-04-28T22:40:21.805Z,98648.91
2018-04-28T22:42:50.176Z,98642.61
2018-04-28T22:45:18.671Z,98647.17
2018-04-28T22:47:47.089Z,98643.98
2018-04-28T22:50:17.047Z,98638.08
2018-04-28T22:52:45.441Z,98639.55
2018-04-28T22:55:13.835Z,98638.59
2018-04-28T22:57:42.209Z,98636.45
2018-04-28T23:00:15.052Z,98516.99
2018-04-28T23:02:43.453Z,98633.02
2018-04-28T23:05:15.498Z,98630.87
2018-04-28T23:07:43.869Z,98628.41
2018-04-28T23:10:16.493Z,98634.80
2018-04-28T23:12:44.976Z,98630.09
2018-04-28T23:15:14.653Z,98626.52
2018-04-28T23:17:43.036Z,98628.37
2018-04-28T23:20:11.412Z,98623.59
2018-04-28T23:22:39.795Z,98613.94
2018-04-28T23:25:12.077Z,98527.80
2018-04-28T23:27:40.459Z,98618.41
2018-04-28T23:30:13.404Z,98615.74
2018-04-28T23:32:41.817Z,98616.94
2018-04-28T23:35:10.215Z,98612.28
2018-04-28T23:37:38.630Z,98611.41
2018-04-28T23:40:15.125Z,98611.27
2018-04-28T23:42:43.511Z,98605.77
2018-04-28T23:45:12.602Z,98604.21
2018-04-28T23:47:40.987Z,98602.15
2018-04-28T23:50:16.472Z,98597.03
2018-04-28T23:52:44.625Z,98600.05
2018-04-28T23:55:14.291Z,98578.52
2018-04-28T23:57:42.665Z,98594.20
